Time;durP1;ratioP1;P1;durP2;ratioP2;P2;SDS_P1;SDS_P2;PMS_P1;PMS_P2;Temp;Humidity;BMP_temperature;BMP_pressure;BME280_temperature;BME280_humidity;BME280_pressure;Samples;Min_cycle;Max_cycle;Signal;HPM_P1;HPM_P2
2023/07/04 00:01:15;;;;;;;17.67;3.33;;;13.80;99.90;;;12.82;89.42;100395.19;4976968;28;20144;-78
2023/07/04 00:03:44;;;;;;;10.60;2.85;;;13.70;99.90;;;12.76;89.03;100392.91;4995239;28;20045;-78
2023/07/04 00:06:16;;;;;;;18.50;4.20;;;13.70;99.90;;;12.68;89.15;100389.91;4979831;28;20038;-78
2023/07/04 00:08:42;;;;;;;18.77;3.72;;;13.60;99.90;;;12.62;89.42;100377.06;4993023;28;20041;-78
2023/07/04 00:11:09;;;;;;;19.48;4.10;;;13.60;99.90;;;12.56;89.47;100382.72;4973196;28;20033;-78
2023/07/04 00:13:37;;;;;;;15.60;3.92;;;13.50;99.90;;;12.52;89.80;100369.69;4960894;28;20033;-78
2023/07/04 00:16:07;;;;;;;13.38;3.67;;;13.50;99.90;;;12.48;89.53;100373.47;4995702;28;20033;-78
2023/07/04 00:18:36;;;;;;;21.30;4.10;;;13.50;99.90;;;12.44;90.03;100365.81;4967049;28;20488;-79
2023/07/04 00:21:04;;;;;;;17.08;4.13;;;13.40;99.90;;;12.36;89.93;100360.16;4977766;28;20465;-78
2023/07/04 00:23:35;;;;;;;14.45;4.03;;;13.40;99.90;;;12.32;90.74;100357.69;4985112;28;20036;-79
2023/07/04 00:26:08;;;;;;;19.00;5.32;;;13.30;99.90;;;12.30;90.27;100353.44;4982557;28;20037;-79
2023/07/04 00:28:42;;;;;;;14.18;3.60;;;13.30;99.90;;;12.27;91.10;100354.50;4961843;28;20061;-79
2023/07/04 00:31:14;;;;;;;13.18;4.38;;;13.30;99.90;;;12.28;90.57;100352.69;4933973;28;20045;-78
2023/07/04 00:33:47;;;;;;;14.75;3.67;;;13.30;99.90;;;12.30;91.35;100343.72;4991606;28;20064;-78
2023/07/04 00:36:16;;;;;;;21.65;5.25;;;13.30;99.90;;;12.34;91.27;100346.22;4997234;28;21046;-78
2023/07/04 00:38:56;;;;;;;14.82;4.38;;;13.30;99.90;;;12.41;91.08;100337.81;5010212;28;20038;-79
2023/07/04 00:41:27;;;;;;;18.02;4.53;;;13.40;99.90;;;12.45;91.26;100334.03;5001252;28;20057;-79
2023/07/04 00:44:19;;;;;;;16.02;4.57;;;13.40;99.90;;;12.52;91.27;100338.00;4985022;28;20095;-79
2023/07/04 00:47:07;;;;;;;17.98;4.95;;;13.50;99.90;;;12.56;91.26;100337.84;4982441;28;20113;-78
2023/07/04 00:49:48;;;;;;;18.70;4.60;;;13.60;99.90;;;12.58;92.34;100325.38;4984779;28;20057;-79
2023/07/04 00:52:24;;;;;;;17.35;4.05;;;13.60;99.90;;;12.58;91.33;100328.03;4952210;28;20449;-77
2023/07/04 00:55:04;;;;;;;;;;;13.60;99.90;;;12.57;92.65;100328.94;4994873;28;20034;-79
2023/07/04 00:57:32;;;;;;;15.80;4.80;;;13.60;99.90;;;12.61;91.84;100330.47;4965118;28;19913;-79
2023/07/04 01:00:26;;;;;;;27.50;5.15;;;13.60;99.90;;;12.63;91.58;100321.50;4964278;28;20125;-78
2023/07/04 01:03:13;;;;;;;23.98;4.53;;;13.60;99.90;;;12.68;92.20;100323.88;4961399;28;20041;-79
2023/07/04 01:06:21;;;;;;;18.38;4.22;;;13.70;99.90;;;12.73;91.50;100324.44;4997502;28;20109;-79
2023/07/04 01:08:55;;;;;;;16.15;4.72;;;13.70;99.90;;;12.77;91.06;100322.47;4988617;28;20530;-78
2023/07/04 01:11:33;;;;;;;16.63;4.53;;;13.70;99.90;;;12.77;91.37;100310.09;4985955;28;20086;-78
2023/07/04 01:14:24;;;;;;;19.77;4.85;;;13.70;99.90;;;12.77;91.97;100306.59;4968870;28;20049;-79
2023/07/04 01:16:57;;;;;;;16.17;4.43;;;13.80;99.90;;;12.79;91.47;100302.91;4930238;28;20045;-79
2023/07/04 01:19:40;;;;;;;13.63;4.90;;;13.80;99.90;;;12.82;91.92;100301.88;4969451;28;20022;-79
2023/07/04 01:22:56;;;;;;;22.95;5.13;;;13.80;99.90;;;12.88;91.31;100299.69;4980512;28;20041;-78
2023/07/04 01:26:16;;;;;;;15.02;4.50;;;13.90;99.90;;;12.92;91.73;100295.91;4947309;28;20567;-79
2023/07/04 01:28:42;;;;;;;18.08;5.03;;;13.90;99.90;;;12.91;91.83;100288.94;4905666;28;20046;-79
2023/07/04 01:31:09;;;;;;;29.30;5.72;;;13.90;99.90;;;12.95;91.65;100289.59;4917137;28;20557;-79
2023/07/04 01:33:36;;;;;;;22.20;5.22;;;13.90;99.90;;;12.97;92.26;100284.22;4895589;28;20055;-78
2023/07/04 01:36:11;;;;;;;16.85;4.55;;;14.00;99.90;;;13.01;92.34;100275.97;4919532;28;20041;-78
2023/07/04 01:38:37;;;;;;;18.92;5.03;;;14.00;99.90;;;13.06;92.06;100278.31;4912929;28;20035;-78
2023/07/04 01:41:03;;;;;;;20.20;5.18;;;14.10;99.90;;;13.08;92.00;100276.44;4907190;28;20670;-79
2023/07/04 01:43:29;;;;;;;17.55;4.82;;;14.10;99.90;;;13.11;92.19;100281.53;4926742;28;20130;-79
2023/07/04 01:46:02;;;;;;;18.88;5.15;;;14.10;99.90;;;13.15;91.83;100272.44;4910187;28;20039;-79
2023/07/04 01:48:29;;;;;;;16.58;5.35;;;14.20;99.90;;;13.21;91.57;100281.78;4889775;28;20120;-79
2023/07/04 01:50:55;;;;;;;20.77;5.60;;;14.10;99.90;;;13.21;92.17;100277.34;4922806;28;20043;-78
2023/07/04 01:53:20;;;;;;;23.33;4.72;;;14.20;99.90;;;13.26;92.16;100269.97;4914386;28;20197;-78
2023/07/04 01:55:46;;;;;;;15.63;4.50;;;14.20;99.90;;;13.33;92.02;100273.09;4943306;28;20904;-78
2023/07/04 01:58:15;;;;;;;19.33;4.53;;;14.30;99.90;;;13.37;91.35;100273.72;4909314;28;20039;-79
2023/07/04 02:00:41;;;;;;;17.52;5.10;;;14.30;99.90;;;13.41;91.29;100268.16;4910879;28;20038;-78
2023/07/04 02:03:07;;;;;;;32.60;5.47;;;14.40;99.90;;;13.49;90.05;100276.41;4975613;28;20033;-78
2023/07/04 02:05:33;;;;;;;23.35;4.72;;;14.50;99.90;;;13.59;88.87;100273.19;4984226;28;20045;-77
2023/07/04 02:07:59;;;;;;;20.00;5.00;;;14.60;99.90;;;13.68;88.55;100276.03;4994474;28;20037;-79
2023/07/04 02:10:26;;;;;;;16.48;4.38;;;14.70;99.90;;;13.75;87.77;100295.84;4966053;28;20042;-78
2023/07/04 02:12:54;;;;;;;22.23;4.53;;;14.70;99.90;;;13.86;87.27;100307.53;4985720;28;20033;-79
2023/07/04 02:15:20;;;;;;;21.38;4.70;;;14.80;99.90;;;13.90;87.36;100298.44;4979000;28;20045;-79
2023/07/04 02:17:47;;;;;;;22.85;4.47;;;14.80;99.90;;;13.93;86.98;100306.16;4984131;28;20060;-78
2023/07/04 02:20:13;;;;;;;23.45;5.35;;;14.90;99.90;;;14.00;86.27;100317.19;4955518;28;20674;-79
2023/07/04 02:22:42;;;;;;;31.40;5.72;;;14.90;99.90;;;14.06;85.92;100322.06;4975734;28;20032;-79
2023/07/04 02:25:17;;;;;;;21.40;4.35;;;15.00;99.90;;;14.12;85.92;100326.94;4957373;28;20044;-78
2023/07/04 02:27:43;;;;;;;26.23;5.10;;;15.00;99.90;;;14.15;86.07;100330.22;4996095;28;20064;-79
2023/07/04 02:30:09;;;;;;;18.10;4.43;;;15.10;99.90;;;14.18;86.30;100330.97;4983137;28;20034;-79
2023/07/04 02:32:41;;;;;;;23.55;5.10;;;15.10;99.90;;;14.20;86.56;100337.88;4976953;28;20609;-78
2023/07/04 02:35:07;;;;;;;20.42;6.07;;;15.10;99.90;;;14.20;86.72;100339.66;4972827;22;20038;-80
2023/07/04 02:37:33;;;;;;;15.50;5.05;;;15.10;99.90;;;14.19;86.96;100337.97;4978204;28;20049;-80
2023/07/04 02:39:59;;;;;;;26.65;5.47;;;15.10;99.90;;;14.15;87.64;100326.75;4977119;28;20127;-81
2023/07/04 02:42:24;;;;;;;27.25;6.28;;;15.10;99.90;;;14.07;89.06;100323.75;4936577;28;20030;-80
2023/07/04 02:44:55;;;;;;;17.92;5.55;;;15.00;99.90;;;14.01;89.95;100330.31;4947810;28;20034;-81
2023/07/04 02:47:26;;;;;;;14.60;5.50;;;15.00;99.90;;;13.99;90.58;100318.97;4945469;28;20037;-82
2023/07/04 02:49:54;;;;;;;23.92;6.07;;;15.00;99.90;;;13.94;91.40;100329.03;4945693;28;20053;-80
2023/07/04 02:52:26;;;;;;;20.60;6.70;;;14.90;99.90;;;13.86;92.39;100321.59;4925347;28;20074;-79
2023/07/04 02:54:52;;;;;;;24.45;6.30;;;14.80;99.90;;;13.80;93.11;100332.63;4945942;28;20034;-80
2023/07/04 02:57:19;;;;;;;21.55;6.00;;;14.80;99.90;;;13.77;93.81;100342.53;4923216;28;20046;-80
2023/07/04 02:59:45;;;;;;;17.50;5.85;;;14.80;99.90;;;13.78;94.06;100338.94;4913159;28;20412;-80
2023/07/04 03:02:17;;;;;;;23.73;6.30;;;14.70;99.90;;;13.77;94.08;100338.09;4966204;28;20029;-82
2023/07/04 03:04:43;;;;;;;22.60;6.65;;;14.70;99.90;;;13.77;94.57;100342.53;4944612;28;20569;-82
2023/07/04 03:07:09;;;;;;;24.23;5.95;;;14.70;99.90;;;13.74;94.78;100330.38;4952694;28;20688;-81
2023/07/04 03:09:35;;;;;;;22.42;5.95;;;14.70;99.90;;;13.71;95.41;100335.84;4956197;28;20048;-80
2023/07/04 03:12:01;;;;;;;21.92;6.30;;;14.70;99.90;;;13.69;95.92;100329.81;4936927;28;20584;-81
2023/07/04 03:14:36;;;;;;;22.60;5.88;;;14.60;99.90;;;13.67;95.79;100326.41;4945435;22;20034;-81
2023/07/04 03:17:15;;;;;;;22.38;6.50;;;14.60;99.90;;;13.62;96.23;100324.06;4958397;28;20541;-81
2023/07/04 03:19:56;;;;;;;19.25;6.25;;;13.40;99.90;;;13.62;96.44;100325.88;4937111;28;20045;-82
2023/07/04 03:22:25;;;;;;;20.73;5.82;;;;;;;13.61;96.79;100321.53;4959719;28;20995;-81
2023/07/04 03:25:15;;;;;;;24.15;6.20;;;14.60;99.90;;;13.61;96.66;100317.09;4972562;28;20498;-82
2023/07/04 03:27:44;;;;;;;17.50;6.30;;;;;;;13.64;96.90;100322.16;4965330;28;20034;-81
2023/07/04 03:30:48;;;;;;;;;;;;;;;;;;;;;
2023/07/04 03:33:14;;;;;;;21.30;5.68;;;14.60;99.90;;;13.63;96.71;100314.31;4943306;28;20654;-81
2023/07/04 03:35:45;;;;;;;20.77;5.60;;;14.50;99.90;;;13.62;96.91;100313.50;4928703;28;20371;-82
2023/07/04 03:38:20;;;;;;;15.02;5.28;;;;;;;13.60;96.99;100302.16;4936665;28;20037;-81
2023/07/04 03:40:47;;;;;;;21.25;5.85;;;14.70;99.90;;;13.66;96.81;100317.63;4957507;28;20042;-81
2023/07/04 03:43:19;;;;;;;137.27;18.98;;;;;;;13.68;96.54;100318.38;4949745;28;20030;-81
2023/07/04 03:45:46;;;;;;;11.23;4.00;;;;;;;13.64;96.26;100327.47;4935888;28;20034;-80
2023/07/04 03:48:12;;;;;;;19.80;4.65;;;14.70;99.90;;;13.68;96.25;100322.81;4953809;28;20045;-81
2023/07/04 03:50:39;;;;;;;14.93;3.97;;;14.70;99.90;;;13.69;96.42;100324.50;4934127;28;20034;-80
2023/07/04 03:53:04;;;;;;;14.02;3.95;;;14.70;99.90;;;13.72;95.71;100326.97;4934828;28;20097;-81
2023/07/04 03:55:40;;;;;;;15.75;4.15;;;;;;;13.72;96.11;100324.31;4927445;23;20048;-82
2023/07/04 03:58:06;;;;;;;15.35;4.93;;;14.70;99.90;;;13.71;95.93;100314.69;5002458;28;20032;-81
2023/07/04 04:00:32;;;;;;;16.10;3.97;;;14.70;99.90;;;13.73;95.13;100326.00;4957886;28;20045;-82
2023/07/04 04:03:05;;;;;;;13.45;4.25;;;14.70;99.90;;;13.75;94.13;100329.41;4988166;28;20697;-79
2023/07/04 04:05:31;;;;;;;21.00;4.75;;;14.70;99.90;;;13.81;93.48;100344.03;4943478;28;20049;-81
2023/07/04 04:07:56;;;;;;;13.27;4.05;;;14.80;99.90;;;13.84;92.62;100343.81;5026040;28;20064;-82
2023/07/04 04:10:22;;;;;;;13.63;3.63;;;14.80;99.90;;;13.87;92.40;100348.94;4983384;28;20448;-81
2023/07/04 04:12:48;;;;;;;18.60;3.90;;;14.90;99.90;;;13.95;91.53;100347.47;4992290;28;20041;-81
2023/07/04 04:15:21;;;;;;;13.27;4.28;;;14.90;99.90;;;14.04;90.71;100359.25;4994720;28;20117;-82
2023/07/04 04:17:57;;;;;;;;;;;;;;;;;;;;;
2023/07/04 04:20:25;;;;;;;;;;;17.20;99.90;;;14.05;89.82;100358.28;5022830;28;20043;-82
2023/07/04 04:22:53;;;;;;;;;;;15.00;99.90;;;14.03;89.32;100362.81;4986937;28;19919;-81
2023/07/04 04:25:19;;;;;;;19.42;3.30;;;15.00;99.90;;;14.06;88.49;100352.03;4959921;28;19906;-81
2023/07/04 04:27:55;;;;;;;398.50;64.70;;;15.00;99.90;;;14.16;88.49;100355.75;4985233;28;20046;-79
2023/07/04 04:30:26;;;;;;;10.48;3.97;;;15.10;99.90;;;14.32;87.66;100357.38;4986861;28;20032;-82
2023/07/04 04:33:05;;;;;;;12.60;4.05;;;;;;;14.51;86.60;100370.19;4980809;28;20041;-80
2023/07/04 04:35:56;;;;;;;16.05;3.72;;;15.30;99.90;;;14.62;85.76;100377.44;4993690;28;20037;-80
2023/07/04 04:38:25;;;;;;;10.88;2.38;;;;;;;14.59;85.00;100382.97;4968002;28;20045;-80
2023/07/04 04:41:04;;;;;;;6.43;2.20;;;15.40;99.90;;;14.54;84.92;100383.25;4971695;28;20041;-80
2023/07/04 04:43:33;;;;;;;7.30;1.83;;;;;;;14.85;83.67;100395.25;4968441;28;20498;-81
2023/07/04 04:46:08;;;;;;;8.05;1.85;;;16.10;99.90;;;16.91;79.38;100408.47;5021272;28;20102;-80
2023/07/04 04:48:35;;;;;;;9.18;1.88;;;17.70;99.90;;;19.70;69.79;100436.75;5018069;28;20036;-79
2023/07/04 04:51:17;;;;;;;7.70;1.77;;;19.60;99.90;;;21.58;62.43;100438.91;4978590;28;20033;-80
2023/07/04 04:53:53;;;;;;;8.52;2.03;;;21.30;99.90;;;23.17;57.17;100453.34;4990672;28;20045;-80
2023/07/04 04:56:19;;;;;;;8.30;1.42;;;21.80;99.90;;;23.26;56.71;100465.78;4973782;28;20036;-80
2023/07/04 04:58:45;;;;;;;5.78;1.30;;;22.60;99.90;;;24.16;54.25;100479.56;4970430;28;20124;-79
2023/07/04 05:01:21;;;;;;;4.40;1.20;;;23.50;99.90;;;25.65;51.15;100494.56;4961157;28;20041;-80
2023/07/04 05:03:54;;;;;;;4.93;1.50;;;24.40;99.90;;;26.19;49.41;100500.00;5021861;28;20022;-80
2023/07/04 05:06:23;;;;;;;2.55;1.02;;;25.00;99.40;;;27.04;46.93;100514.34;4937272;28;20043;-80
2023/07/04 05:08:50;;;;;;;3.80;1.17;;;25.60;98.00;;;27.46;45.61;100529.16;4976461;28;20407;-80
2023/07/04 05:11:17;;;;;;;36.55;2.40;;;26.00;97.50;;;27.08;45.30;100535.41;4988812;28;20490;-79
2023/07/04 05:13:49;;;;;;;6.82;1.58;;;25.70;97.10;;;26.96;45.30;100542.31;5006768;28;20056;-81
2023/07/04 05:16:21;;;;;;;8.57;1.50;;;25.90;96.20;;;27.83;43.64;100555.22;5005755;28;20032;-78
2023/07/04 05:18:56;;;;;;;9.10;1.80;;;26.40;95.80;;;28.40;42.25;100567.16;5016559;28;20038;-79
2023/07/04 05:21:25;;;;;;;6.60;1.83;;;;;;;28.52;42.04;100579.19;4937672;28;20037;-81
2023/07/04 05:23:54;;;;;;;8.95;2.00;;;26.40;94.60;;;26.58;43.95;100553.06;5005129;28;20111;-81
2023/07/04 05:26:26;;;;;;;7.63;1.35;;;26.10;94.90;;;26.92;43.35;100563.44;4960133;28;20046;-79
2023/07/04 05:29:02;;;;;;;7.40;2.10;;;25.90;95.30;;;26.08;44.57;100555.22;4980020;28;20040;-80
2023/07/04 05:31:30;;;;;;;4.68;1.35;;;26.10;95.90;;;28.26;41.95;100595.13;4990639;28;20049;-79
2023/07/04 05:33:56;;;;;;;6.90;1.40;;;26.40;94.90;;;27.93;41.72;100593.69;4973326;28;20044;-79
2023/07/04 05:36:32;;;;;;;6.45;1.50;;;26.20;95.10;;;27.24;43.45;100604.72;4965251;28;20105;-80
2023/07/04 05:39:02;;;;;;;6.80;1.25;;;25.70;95.30;;;25.86;45.69;100582.97;5005619;28;20120;-80
2023/07/04 05:41:34;;;;;;;7.40;1.60;;;25.10;94.90;;;24.41;46.37;100568.41;4979019;28;20040;-80
2023/07/04 05:44:04;;;;;;;5.93;1.10;;;24.70;96.10;;;25.00;45.89;100581.75;4986574;28;20025;-79
2023/07/04 05:46:35;;;;;;;13.80;7.50;;;24.30;96.00;;;24.63;46.64;100585.78;5003686;28;20120;-79
2023/07/04 05:49:03;;;;;;;5.57;1.23;;;23.60;96.30;;;23.66;48.78;100578.03;5024038;28;20033;-80
2023/07/04 05:51:29;;;;;;;7.18;1.45;;;23.50;96.90;;;24.71;46.49;100597.41;4963144;28;20110;-78
2023/07/04 05:53:55;;;;;;;4.28;1.17;;;24.20;96.40;;;26.45;43.66;100618.44;4995225;28;20157;-79
2023/07/04 05:56:30;;;;;;;4.38;1.10;;;25.00;95.90;;;27.37;42.02;100634.66;5004972;28;20040;-79
2023/07/04 05:58:59;;;;;;;5.70;1.25;;;25.80;94.50;;;27.94;41.02;100643.22;5004834;28;20530;-78
2023/07/04 06:01:48;;;;;;;6.15;1.20;;;26.50;94.10;;;28.13;40.14;100656.19;5018088;28;20037;-78
2023/07/04 06:04:14;;;;;;;9.10;1.05;;;27.10;92.90;;;29.14;38.56;100664.44;4970986;28;21565;-79
2023/07/04 06:06:42;;;;;;;4.60;1.25;;;27.40;92.40;;;27.74;40.07;100654.56;5011094;28;20037;-80
2023/07/04 06:09:17;;;;;;;4.43;1.10;;;27.30;92.30;;;28.11;40.17;100670.94;4995929;28;20631;-80
2023/07/04 06:11:46;;;;;;;5.05;1.27;;;27.40;91.90;;;27.77;39.70;100669.59;5011973;28;20233;-80
2023/07/04 06:14:26;;;;;;;8.25;1.52;;;26.90;92.20;;;27.84;39.85;100675.97;5011892;28;20041;-79
2023/07/04 06:16:55;;;;;;;6.10;1.17;;;27.20;92.00;;;28.95;38.74;100692.16;4980752;28;20049;-80
2023/07/04 06:19:23;;;;;;;6.05;1.27;;;27.80;91.30;;;29.26;38.17;100707.28;4987513;28;20037;-79
2023/07/04 06:21:49;;;;;;;4.80;1.25;;;28.20;91.10;;;29.27;38.05;100714.41;5010529;28;20045;-80
2023/07/04 06:24:16;;;;;;;7.47;1.30;;;28.60;90.50;;;30.02;37.33;100721.91;4980197;28;20044;-79
2023/07/04 06:26:43;;;;;;;181.30;12.60;;;28.90;90.50;;;30.53;36.88;100725.31;5003358;28;22966;-80
2023/07/04 06:29:08;;;;;;;8.98;1.20;;;29.40;89.50;;;30.82;35.99;100735.00;4994423;28;20509;-80
2023/07/04 06:31:44;;;;;;;5.90;1.10;;;29.40;87.90;;;30.22;36.49;100730.16;5002746;28;20043;-78
2023/07/04 06:34:11;;;;;;;4.13;1.20;;;29.50;89.40;;;30.53;36.64;100730.75;4991201;28;20037;-80
2023/07/04 06:36:37;;;;;;;5.95;1.10;;;29.30;88.90;;;29.39;37.68;100737.22;4973663;28;20279;-79
2023/07/04 06:39:08;;;;;;;6.03;1.85;;;29.10;88.60;;;29.35;37.47;100735.94;4955914;28;20029;-80
2023/07/04 06:41:34;;;;;;;8.13;1.27;;;28.60;87.60;;;28.08;38.63;100726.28;4985484;28;20046;-79
2023/07/04 06:44:00;;;;;;;6.65;1.23;;;28.40;89.70;;;28.79;38.93;100732.03;4967963;28;20056;-80
2023/07/04 06:46:26;;;;;;;6.70;1.25;;;28.50;88.40;;;28.67;37.90;100740.84;4972589;28;20061;-79
2023/07/04 06:48:52;;;;;;;6.68;1.23;;;28.30;87.70;;;27.93;38.88;100728.97;4970368;28;20033;-78
2023/07/04 06:51:22;;;;;;;7.78;1.50;;;28.30;88.40;;;28.68;37.42;100735.22;4984431;28;20045;-78
2023/07/04 06:53:49;;;;;;;4.40;1.20;;;28.50;89.00;;;29.32;37.65;100756.16;4967694;28;20033;-80
2023/07/04 06:56:21;;;;;;;4.60;1.25;;;28.40;88.10;;;28.16;39.30;100733.47;5018326;28;20037;-80
2023/07/04 06:58:55;;;;;;;32.20;3.08;;;28.50;88.50;;;28.52;38.16;100746.28;5044242;28;20061;-80
2023/07/04 07:01:26;;;;;;;10.88;1.65;;;28.60;87.10;;;29.34;37.34;100774.97;5026781;28;20149;-79
2023/07/04 07:04:00;;;;;;;9.50;1.15;;;29.40;88.20;;;30.45;36.08;100789.66;5007789;28;20514;-80
2023/07/04 07:06:27;;;;;;;7.88;1.55;;;30.10;86.60;;;30.93;35.49;100786.13;4978088;28;20370;-79
2023/07/04 07:08:53;;;;;;;12.63;1.63;;;30.10;87.70;;;31.47;34.69;100804.28;5021870;28;20267;-80
2023/07/04 07:11:29;;;;;;;17.58;2.20;;;31.00;83.70;;;31.42;34.44;100811.34;4980371;28;20075;-80
2023/07/04 07:13:54;;;;;;;7.50;1.33;;;31.20;82.50;;;31.07;34.01;100809.56;5010551;28;20111;-79
2023/07/04 07:16:29;;;;;;;8.98;1.15;;;31.00;83.20;;;30.55;35.56;100802.03;5026293;28;20040;-80
2023/07/04 07:18:55;;;;;;;6.90;1.52;;;30.20;83.60;;;29.11;37.00;100789.50;4969660;28;20428;-79
2023/07/04 07:21:25;;;;;;;5.63;1.80;;;29.80;83.70;;;29.71;36.71;100786.59;4984610;28;20033;-80
2023/07/04 07:23:59;;;;;;;7.13;1.35;;;;;;;30.36;35.78;100795.44;4981291;28;20522;-80
2023/07/04 07:26:27;;;;;;;6.07;1.35;;;30.50;84.20;;;31.19;34.83;100808.97;5017773;28;20108;-79
2023/07/04 07:28:52;;;;;;;12.23;1.33;;;30.90;82.60;;;31.49;34.16;100817.69;4996507;28;20118;-79
2023/07/04 07:31:26;;;;;;;7.13;3.55;;;31.20;80.80;;;31.28;34.14;100816.75;5013681;28;20129;-78
2023/07/04 07:33:52;;;;;;;6.00;1.40;;;30.80;79.50;;;29.64;35.27;100819.91;4978541;28;20041;-80
2023/07/04 07:36:20;;;;;;;8.63;1.58;;;30.20;80.40;;;29.59;35.54;100818.78;4977425;28;20574;-78
2023/07/04 07:38:49;;;;;;;6.80;1.52;;;29.70;82.10;;;28.85;36.35;100795.44;5011802;28;20108;-78
2023/07/04 07:41:16;;;;;;;5.47;1.33;;;29.10;80.30;;;28.40;36.25;100795.47;4967981;28;20439;-79
2023/07/04 07:43:43;;;;;;;12.07;1.92;;;28.60;83.20;;;28.39;36.92;100791.06;4994677;28;20489;-79
2023/07/04 07:46:11;;;;;;;4.72;1.10;;;28.60;84.10;;;28.75;36.68;100792.22;5006152;28;20048;-78
2023/07/04 07:48:37;;;;;;;7.85;1.45;;;28.90;82.60;;;28.71;35.79;100788.19;5026570;28;20326;-78
2023/07/04 07:51:07;;;;;;;14.25;2.67;;;28.80;82.00;;;28.28;36.24;100783.41;5028101;28;20499;-79
2023/07/04 07:53:36;;;;;;;9.20;1.92;;;28.10;84.40;;;27.50;38.28;100771.94;4966214;28;20053;-79
2023/07/04 07:56:04;;;;;;;10.23;1.90;;;27.70;85.40;;;28.09;37.90;100771.25;4994471;28;20040;-79
2023/07/04 07:58:34;;;;;;;11.13;1.40;;;27.90;85.70;;;28.08;38.43;100764.19;4963456;28;20087;-79
2023/07/04 08:01:08;;;;;;;6.10;1.27;;;28.30;87.20;;;29.04;37.19;100769.59;5021985;28;20036;-79
2023/07/04 08:03:34;;;;;;;6.13;1.20;;;28.50;83.70;;;28.60;37.24;100778.69;5011117;28;20837;-79
2023/07/04 08:06:05;;;;;;;6.25;1.25;;;28.40;85.00;;;28.38;36.48;100773.16;4986129;28;20501;-78
2023/07/04 08:08:31;;;;;;;5.80;1.38;;;28.00;83.60;;;27.58;38.18;100763.78;5000471;28;20046;-80
2023/07/04 08:10:58;;;;;;;7.18;1.38;;;27.80;84.40;;;27.66;37.78;100760.13;4989187;28;20043;-78
2023/07/04 08:13:24;;;;;;;9.68;1.50;;;27.60;83.30;;;27.25;38.32;100763.16;5018859;28;20041;-78
2023/07/04 08:15:56;;;;;;;4.22;1.33;;;27.50;82.90;;;27.41;37.09;100765.75;5003153;22;20045;-79
2023/07/04 08:18:22;;;;;;;6.22;1.40;;;27.20;81.60;;;27.00;37.12;100767.88;4961397;28;20037;-78
2023/07/04 08:21:03;;;;;;;903.83;272.42;;;26.90;83.70;;;26.59;38.27;100763.53;4980434;28;20025;-78
2023/07/04 08:23:30;;;;;;;1181.80;557.33;;;26.50;84.10;;;26.04;39.14;100756.22;4982025;28;20033;-79
2023/07/04 08:25:56;;;;;;;211.90;70.10;;;26.20;84.20;;;25.77;38.72;100752.88;4985611;28;20568;-79
2023/07/04 08:28:26;;;;;;;9.50;1.23;;;26.00;84.90;;;25.92;39.16;100758.47;4985087;28;20046;-79
2023/07/04 08:30:52;;;;;;;6.00;2.78;;;25.60;84.10;;;24.90;40.16;100728.22;5004588;28;20030;-79
2023/07/04 08:33:19;;;;;;;5.88;1.55;;;25.40;85.70;;;25.18;39.79;100733.28;4956073;28;20547;-79
2023/07/04 08:35:54;;;;;;;7.10;1.48;;;25.30;87.80;;;25.03;40.44;100733.09;4954445;28;20046;-78
2023/07/04 08:38:20;;;;;;;3.38;1.05;;;25.10;86.80;;;24.73;41.09;100716.56;4981359;28;20052;-78
2023/07/04 08:40:47;;;;;;;4.18;0.90;;;25.00;86.60;;;24.30;40.90;100715.69;4982204;28;20068;-79
2023/07/04 08:43:13;;;;;;;6.47;1.20;;;24.70;86.80;;;23.98;41.91;100715.53;4985798;28;21447;-78
2023/07/04 08:45:39;;;;;;;8.57;1.40;;;24.60;86.00;;;23.78;41.54;100714.88;4972514;28;20495;-78
2023/07/04 08:48:16;;;;;;;5.20;1.25;;;24.40;87.50;;;23.81;41.98;100709.19;4935401;28;20033;-79
2023/07/04 08:50:45;;;;;;;24.35;1.40;;;24.20;86.30;;;23.32;41.78;100704.25;4970892;28;20549;-78
2023/07/04 08:53:18;;;;;;;8.30;1.40;;;24.00;87.60;;;23.33;42.55;100700.59;4956248;28;20064;-78
2023/07/04 08:56:03;;;;;;;8.43;1.23;;;24.00;88.80;;;23.41;42.70;100699.78;4986015;22;20664;-78
2023/07/04 08:58:49;;;;;;;5.47;1.40;;;23.80;87.40;;;23.17;42.49;100701.25;4988905;28;20045;-78
2023/07/04 09:01:30;;;;;;;6.72;1.30;;;23.70;88.80;;;22.93;43.15;100697.31;4989418;28;20041;-78
2023/07/04 09:04:14;;;;;;;8.93;1.63;;;23.50;88.50;;;22.57;43.42;100692.88;4980362;28;20045;-77
2023/07/04 09:07:07;;;;;;;7.72;1.90;;;23.40;88.80;;;22.52;42.65;100691.50;4975491;28;20044;-76
2023/07/04 09:10:02;;;;;;;17.08;3.70;;;23.40;89.80;;;22.76;43.33;100698.13;4966243;28;20047;-77
2023/07/04 09:12:37;;;;;;;10.23;2.92;;;23.40;89.00;;;22.81;42.69;100695.88;5007385;28;20046;-77
2023/07/04 09:15:47;;;;;;;7.38;1.38;;;23.40;87.90;;;22.81;42.05;100693.19;4985720;23;20053;-76
2023/07/04 09:18:52;;;;;;;7.00;1.55;;;23.50;87.90;;;22.99;41.87;100709.28;4948366;28;20879;-76
2023/07/04 09:21:22;;;;;;;8.75;1.95;;;23.50;87.00;;;22.94;41.75;100698.19;4957470;28;20058;-76
2023/07/04 09:23:58;;;;;;;3.92;1.10;;;23.60;88.50;;;23.05;42.14;100699.81;4930966;28;20034;-77
2023/07/04 09:26:55;;;;;;;3.88;1.30;;;24.80;87.20;;;23.14;41.09;100707.78;4909861;28;20045;-77
2023/07/04 09:29:24;;;;;;;;;;;23.60;88.10;;;22.97;41.30;100705.91;4940685;28;20542;-78
2023/07/04 09:32:01;;;;;;;6.38;1.25;;;23.60;89.20;;;23.22;42.21;100704.34;4960680;28;19914;-76
2023/07/04 09:34:40;;;;;;;6.05;1.50;;;23.70;90.10;;;23.40;42.86;100707.00;4930666;22;20055;-77
2023/07/04 09:37:16;;;;;;;6.45;1.20;;;23.80;89.50;;;23.54;42.72;100710.97;4943244;28;20731;-77
2023/07/04 09:39:54;;;;;;;25.88;5.28;;;23.90;87.10;;;23.57;41.70;100716.06;4983247;28;20115;-77
2023/07/04 09:42:45;;;;;;;12.13;2.42;;;24.00;86.60;;;23.51;40.48;100720.19;4965044;28;20514;-77
2023/07/04 09:45:19;;;;;;;8.93;1.60;;;23.90;89.30;;;23.60;41.84;100728.31;4964068;28;20043;-76
2023/07/04 09:47:48;;;;;;;5.15;1.42;;;23.90;87.40;;;23.48;41.67;100720.50;4957800;28;20152;-78
2023/07/04 09:50:22;;;;;;;4.63;1.35;;;23.80;89.50;;;23.42;42.30;100715.75;4960824;28;20091;-76
2023/07/04 09:53:11;;;;;;;5.72;1.45;;;23.80;89.60;;;23.43;42.51;100719.28;4982608;28;20048;-77
2023/07/04 09:55:56;;;;;;;177.23;24.08;;;23.80;89.10;;;23.37;42.39;100722.59;4980731;23;20598;-76
2023/07/04 09:58:29;;;;;;;4.93;1.08;;;23.70;86.50;;;23.10;41.75;100721.69;4985562;28;20089;-77
2023/07/04 10:01:18;;;;;;;6.78;1.33;;;23.60;86.50;;;22.87;41.40;100726.59;4997455;28;20042;-76
2023/07/04 10:03:46;;;;;;;4.82;1.13;;;23.50;87.00;;;22.97;41.84;100726.56;5012864;28;20425;-76
2023/07/04 10:06:29;;;;;;;4.68;1.20;;;23.50;87.40;;;23.14;42.17;100740.00;4956387;28;20120;-76
2023/07/04 10:09:18;;;;;;;3.72;1.20;;;23.60;89.10;;;23.30;42.21;100738.47;4988389;28;20034;-77
2023/07/04 10:11:47;;;;;;;5.32;1.30;;;23.60;86.40;;;23.09;41.25;100728.91;4981316;28;20034;-76
2023/07/04 10:16:51;;;;;;;7.13;1.33;;;23.50;87.00;;;22.76;42.09;100722.28;5042452;22;20516;-76
2023/07/04 10:19:25;;;;;;;4.65;1.17;;;23.30;88.00;;;22.70;42.14;100725.59;4992538;28;20030;-76
2023/07/04 10:21:56;;;;;;;10.93;1.25;;;22.90;88.10;;;22.60;42.46;100725.66;4999153;28;20073;-77
2023/07/04 10:24:25;;;;;;;3.85;1.10;;;23.30;88.90;;;22.86;42.30;100717.72;5019550;28;20026;-76
2023/07/04 10:26:58;;;;;;;5.35;1.13;;;23.40;89.70;;;23.15;42.59;100730.13;5032227;28;20052;-76
2023/07/04 10:29:44;;;;;;;8.30;1.48;;;23.60;88.30;;;23.38;41.99;100724.28;5008344;28;20029;-76
2023/07/04 10:32:16;;;;;;;10.68;1.75;;;23.80;86.80;;;23.64;40.88;100737.75;5026430;28;20488;-77
2023/07/04 10:34:49;;;;;;;5.85;1.10;;;24.00;86.30;;;23.59;40.71;100732.88;5010301;28;20144;-77
2023/07/04 10:37:32;;;;;;;5.95;1.50;;;24.10;87.30;;;23.61;41.06;100743.47;4997692;28;20034;-77
2023/07/04 10:40:14;;;;;;;4.82;1.13;;;24.10;85.30;;;23.34;41.15;100738.00;4994778;28;20548;-77